createdAt,value
2016-11-07T00:00:01.572Z,0
2016-11-07T00:01:01.316Z,0
2016-11-07T00:02:01.631Z,0
2016-11-07T00:03:01.355Z,0
2016-11-07T00:04:01.397Z,0
2016-11-07T00:05:01.473Z,0
2016-11-07T00:06:01.870Z,0
2016-11-07T00:07:01.296Z,0
2016-11-07T00:08:01.454Z,0
2016-11-07T00:09:01.419Z,0
2016-11-07T00:10:01.871Z,0
2016-11-07T00:11:02.173Z,0
2016-11-07T00:12:01.483Z,0
2016-11-07T00:13:01.556Z,0
2016-11-07T00:14:01.421Z,0
2016-11-07T00:15:01.552Z,0
2016-11-07T00:16:01.347Z,0
2016-11-07T00:17:01.360Z,0
2016-11-07T00:18:01.713Z,0
2016-11-07T00:19:01.305Z,0
2016-11-07T00:20:01.492Z,0
2016-11-07T00:21:01.397Z,0
2016-11-07T00:22:01.383Z,0
2016-11-07T00:23:01.329Z,0
2016-11-07T00:24:01.357Z,0
2016-11-07T00:25:01.334Z,0
2016-11-07T00:26:01.342Z,0
2016-11-07T00:27:02.250Z,0
2016-11-07T00:28:01.291Z,0
2016-11-07T00:29:01.381Z,0
2016-11-07T00:30:01.449Z,0
2016-11-07T00:31:01.955Z,0
2016-11-07T00:32:01.366Z,0
2016-11-07T00:33:01.393Z,0
2016-11-07T00:34:01.332Z,0
2016-11-07T00:35:01.483Z,0
2016-11-07T00:36:01.336Z,0
2016-11-07T00:37:01.501Z,0
2016-11-07T00:38:01.449Z,0
2016-11-07T00:39:01.328Z,0
2016-11-07T00:40:01.415Z,0
2016-11-07T00:41:01.540Z,0
2016-11-07T00:42:01.393Z,0
2016-11-07T00:43:01.438Z,0
2016-11-07T00:44:01.843Z,0
2016-11-07T00:45:01.270Z,0
2016-11-07T00:46:01.345Z,0
2016-11-07T00:47:01.374Z,0
2016-11-07T00:48:01.959Z,0
2016-11-07T00:49:01.321Z,0
2016-11-07T00:50:01.537Z,0
2016-11-07T00:51:01.276Z,0
2016-11-07T00:52:02.026Z,0
2016-11-07T00:53:01.699Z,0
2016-11-07T00:54:02.365Z,0
2016-11-07T00:55:01.486Z,0
2016-11-07T00:56:01.434Z,0
2016-11-07T00:57:01.350Z,0
2016-11-07T00:58:01.551Z,0
2016-11-07T00:59:01.354Z,0
2016-11-07T01:00:01.404Z,0
2016-11-07T01:01:01.737Z,0
2016-11-07T01:02:01.579Z,0
2016-11-07T01:03:01.424Z,0
2016-11-07T01:04:02.189Z,0
2016-11-07T01:05:01.542Z,0
2016-11-07T01:06:01.379Z,0
2016-11-07T01:07:01.474Z,0
2016-11-07T01:08:01.317Z,0
2016-11-07T01:09:01.625Z,0
2016-11-07T01:10:01.470Z,0
2016-11-07T01:11:01.377Z,0
2016-11-07T01:12:01.645Z,0
2016-11-07T01:13:01.357Z,0
2016-11-07T01:14:01.334Z,0
2016-11-07T01:15:01.341Z,0
2016-11-07T01:16:01.550Z,0
2016-11-07T01:17:01.321Z,0
2016-11-07T01:18:01.376Z,0
2016-11-07T01:19:01.328Z,0
2016-11-07T01:20:01.330Z,0
2016-11-07T01:21:01.801Z,0
2016-11-07T01:22:02.223Z,0
2016-11-07T01:23:01.347Z,0
2016-11-07T01:24:01.337Z,0
2016-11-07T01:25:01.693Z,0
2016-11-07T01:26:01.363Z,0
2016-11-07T01:27:01.324Z,0
2016-11-07T01:28:01.349Z,0
2016-11-07T01:29:01.420Z,0
2016-11-07T01:30:01.309Z,0
2016-11-07T01:31:01.404Z,0
2016-11-07T01:32:01.360Z,0
2016-11-07T01:33:01.385Z,0
2016-11-07T01:34:01.372Z,0
2016-11-07T01:35:01.327Z,0
2016-11-07T01:36:02.310Z,0
2016-11-07T01:37:01.396Z,0
2016-11-07T01:38:02.317Z,0
2016-11-07T01:39:01.305Z,0
2016-11-07T01:40:02.362Z,0
2016-11-07T01:41:01.597Z,0
2016-11-07T01:42:02.291Z,0
2016-11-07T01:43:02.422Z,0
2016-11-07T01:44:01.315Z,0
2016-11-07T01:45:01.409Z,0
2016-11-07T01:46:03.244Z,0
2016-11-07T01:47:01.338Z,0
2016-11-07T01:48:01.338Z,0
2016-11-07T01:49:01.360Z,0
2016-11-07T01:50:01.675Z,0
2016-11-07T01:51:01.395Z,0
2016-11-07T01:52:01.817Z,0
2016-11-07T01:53:01.335Z,0
2016-11-07T01:54:01.321Z,0
2016-11-07T01:55:01.487Z,0
2016-11-07T01:56:01.330Z,0
2016-11-07T01:57:01.619Z,0
2016-11-07T01:58:01.300Z,0
2016-11-07T01:59:01.884Z,0
2016-11-07T02:00:01.309Z,0
2016-11-07T02:01:02.701Z,0
2016-11-07T02:02:01.584Z,0
2016-11-07T02:03:01.446Z,0
2016-11-07T02:04:01.284Z,0
2016-11-07T02:05:01.337Z,0
2016-11-07T02:06:01.347Z,0
2016-11-07T02:07:02.581Z,0
2016-11-07T02:08:01.355Z,0
2016-11-07T02:09:01.393Z,0
2016-11-07T02:10:01.319Z,0
2016-11-07T02:11:01.351Z,0
2016-11-07T02:12:01.399Z,0
2016-11-07T02:13:01.347Z,0
2016-11-07T02:14:01.345Z,0
2016-11-07T02:15:01.316Z,0
2016-11-07T02:16:01.440Z,0
2016-11-07T02:17:01.320Z,0
2016-11-07T02:18:01.366Z,0
2016-11-07T02:19:01.354Z,0
2016-11-07T02:20:01.470Z,0
2016-11-07T02:21:02.071Z,0
2016-11-07T02:22:01.326Z,0
2016-11-07T02:23:01.376Z,0
2016-11-07T02:24:01.336Z,0
2016-11-07T02:25:01.405Z,0
2016-11-07T02:26:01.376Z,0
2016-11-07T02:27:01.344Z,0
2016-11-07T02:28:01.469Z,0
2016-11-07T02:29:01.382Z,0
2016-11-07T02:30:01.334Z,0
2016-11-07T02:31:01.458Z,0
2016-11-07T02:32:01.355Z,0
2016-11-07T02:33:01.506Z,0
2016-11-07T02:34:01.434Z,0
2016-11-07T02:35:01.349Z,0
2016-11-07T02:36:01.402Z,0
2016-11-07T02:37:01.470Z,0
2016-11-07T02:38:01.387Z,0
2016-11-07T02:39:01.357Z,0
2016-11-07T02:40:01.339Z,0
2016-11-07T02:41:01.351Z,0
2016-11-07T02:42:01.360Z,0
2016-11-07T02:43:01.352Z,0
2016-11-07T02:44:01.320Z,0
2016-11-07T02:45:01.344Z,0
2016-11-07T02:46:01.335Z,0
2016-11-07T02:47:01.364Z,0
2016-11-07T02:48:01.401Z,0
2016-11-07T02:49:01.335Z,0
2016-11-07T02:50:01.354Z,0
2016-11-07T02:51:01.347Z,0
2016-11-07T02:52:01.351Z,0
2016-11-07T02:53:01.357Z,0
2016-11-07T02:54:01.341Z,0
2016-11-07T02:55:01.365Z,0
2016-11-07T02:56:01.387Z,0
2016-11-07T02:57:01.396Z,0
2016-11-07T02:58:01.384Z,0
2016-11-07T02:59:01.368Z,0
2016-11-07T03:00:01.354Z,0
2016-11-07T03:01:01.666Z,0
2016-11-07T03:02:01.460Z,0
2016-11-07T03:03:01.396Z,0
2016-11-07T03:04:01.364Z,0
2016-11-07T03:05:01.375Z,0
2016-11-07T03:06:01.381Z,0
2016-11-07T03:07:01.369Z,0
2016-11-07T03:08:01.383Z,0
2016-11-07T03:09:01.349Z,0
2016-11-07T03:10:01.378Z,0
2016-11-07T03:11:01.477Z,0
2016-11-07T03:12:01.384Z,0
2016-11-07T03:13:01.389Z,0
2016-11-07T03:14:01.353Z,0
2016-11-07T03:15:01.394Z,0
2016-11-07T03:16:01.335Z,0
2016-11-07T03:17:01.389Z,0
2016-11-07T03:18:01.407Z,0
2016-11-07T03:19:01.373Z,0
2016-11-07T03:20:01.364Z,0
2016-11-07T03:21:02.042Z,0
2016-11-07T03:22:01.387Z,0
2016-11-07T03:23:01.570Z,0
2016-11-07T03:24:01.471Z,0
2016-11-07T03:25:01.458Z,0
2016-11-07T03:26:01.409Z,0
2016-11-07T03:27:01.550Z,0
2016-11-07T03:28:01.398Z,0
2016-11-07T03:29:01.383Z,0
2016-11-07T03:30:01.373Z,0
2016-11-07T03:31:01.383Z,0
2016-11-07T03:32:01.377Z,0
2016-11-07T03:33:01.422Z,0
2016-11-07T03:34:01.387Z,0
2016-11-07T03:35:01.410Z,0
2016-11-07T03:36:01.402Z,0
2016-11-07T03:37:01.407Z,0
2016-11-07T03:38:02.094Z,0
2016-11-07T03:39:01.403Z,0
2016-11-07T03:40:01.428Z,0
2016-11-07T03:41:01.419Z,0
2016-11-07T03:42:01.407Z,0
2016-11-07T03:43:01.663Z,0
2016-11-07T03:44:01.390Z,0
2016-11-07T03:45:01.863Z,0
2016-11-07T03:46:01.432Z,0
2016-11-07T03:47:01.435Z,0
2016-11-07T03:48:01.404Z,0
2016-11-07T03:49:01.437Z,0
2016-11-07T03:50:01.371Z,0
2016-11-07T03:51:01.406Z,0
2016-11-07T03:52:01.423Z,0
2016-11-07T03:53:01.768Z,0
2016-11-07T03:54:01.819Z,0
2016-11-07T03:55:01.390Z,0
2016-11-07T03:56:01.397Z,0
2016-11-07T03:57:02.046Z,0
2016-11-07T03:58:01.410Z,0
2016-11-07T03:59:01.561Z,0
2016-11-07T04:00:01.435Z,0
2016-11-07T04:01:01.383Z,0
2016-11-07T04:02:01.397Z,0
2016-11-07T04:03:01.867Z,0
2016-11-07T04:04:01.492Z,0
2016-11-07T04:05:01.395Z,0
2016-11-07T04:06:01.399Z,0
2016-11-07T04:07:01.443Z,0
2016-11-07T04:08:01.447Z,0
2016-11-07T04:09:01.470Z,0
2016-11-07T04:10:01.410Z,0
2016-11-07T04:11:01.403Z,0
2016-11-07T04:12:01.398Z,0
2016-11-07T04:13:01.442Z,0
2016-11-07T04:14:02.752Z,0
2016-11-07T04:15:01.413Z,0
2016-11-07T04:16:01.419Z,0
2016-11-07T04:17:02.263Z,0
2016-11-07T04:18:01.444Z,0
2016-11-07T04:19:01.481Z,0
2016-11-07T04:20:01.474Z,0
2016-11-07T04:21:01.403Z,0
2016-11-07T04:22:01.392Z,0
2016-11-07T04:23:01.428Z,0
2016-11-07T04:24:01.436Z,0
2016-11-07T04:25:01.447Z,0
2016-11-07T04:26:01.446Z,0
2016-11-07T04:27:01.480Z,0
2016-11-07T04:28:02.969Z,0
2016-11-07T04:29:01.476Z,0
2016-11-07T04:30:01.410Z,0
2016-11-07T04:31:01.422Z,0
2016-11-07T04:32:01.445Z,0
2016-11-07T04:33:01.436Z,0
2016-11-07T04:34:01.470Z,0
2016-11-07T04:35:01.519Z,0
2016-11-07T04:36:01.422Z,0
2016-11-07T04:37:01.828Z,0
2016-11-07T04:38:01.426Z,0
2016-11-07T04:39:01.404Z,0
2016-11-07T04:40:01.426Z,0
2016-11-07T04:41:01.416Z,0
2016-11-07T04:42:01.424Z,0
2016-11-07T04:43:01.519Z,0
2016-11-07T04:44:01.460Z,0
2016-11-07T04:45:02.062Z,0
2016-11-07T04:46:01.531Z,0
2016-11-07T04:47:01.472Z,0
2016-11-07T04:48:01.473Z,0
2016-11-07T04:49:01.448Z,0
2016-11-07T04:50:01.439Z,0
2016-11-07T04:51:01.445Z,0
2016-11-07T04:52:01.454Z,0
2016-11-07T04:53:01.460Z,0
2016-11-07T04:54:01.445Z,0
2016-11-07T04:55:01.473Z,0
2016-11-07T04:56:01.526Z,0
2016-11-07T04:57:01.509Z,0
2016-11-07T04:58:01.462Z,0
2016-11-07T04:59:01.472Z,0
2016-11-07T05:00:01.483Z,0
2016-11-07T05:01:01.448Z,0
2016-11-07T05:02:01.451Z,0
2016-11-07T05:03:01.497Z,0
2016-11-07T05:04:01.456Z,0
2016-11-07T05:05:01.476Z,0
2016-11-07T05:06:01.502Z,0
2016-11-07T05:07:01.499Z,0
2016-11-07T05:08:01.509Z,0
2016-11-07T05:09:01.500Z,0
2016-11-07T05:10:01.518Z,0
2016-11-07T05:11:01.502Z,0
2016-11-07T05:12:01.493Z,0
2016-11-07T05:13:01.548Z,0
2016-11-07T05:14:01.486Z,0
2016-11-07T05:15:01.477Z,0
2016-11-07T05:16:01.467Z,0
2016-11-07T05:17:01.493Z,0
2016-11-07T05:18:01.480Z,0
2016-11-07T05:19:01.516Z,0
2016-11-07T05:20:01.517Z,0
2016-11-07T05:21:01.537Z,0
2016-11-07T05:22:01.484Z,0
2016-11-07T05:23:01.518Z,0
2016-11-07T05:24:01.500Z,0
2016-11-07T05:25:01.491Z,0
2016-11-07T05:26:01.478Z,0
2016-11-07T05:27:01.486Z,0
2016-11-07T05:28:01.509Z,0
2016-11-07T05:29:01.446Z,0
2016-11-07T05:30:02.425Z,0
2016-11-07T05:31:01.474Z,0
2016-11-07T05:32:01.454Z,0
2016-11-07T05:33:01.477Z,0
2016-11-07T05:34:01.467Z,0
2016-11-07T05:35:01.475Z,0
2016-11-07T05:36:01.448Z,0
2016-11-07T05:37:02.503Z,0
2016-11-07T05:38:01.480Z,0
2016-11-07T05:39:01.454Z,0
2016-11-07T05:40:01.490Z,0
2016-11-07T05:41:01.486Z,0
2016-11-07T05:42:01.496Z,0
2016-11-07T05:43:01.519Z,0
2016-11-07T05:44:01.519Z,0
2016-11-07T05:45:01.494Z,0
2016-11-07T05:46:01.503Z,0
2016-11-07T05:47:01.503Z,0
2016-11-07T05:48:01.495Z,0
2016-11-07T05:49:01.508Z,0
2016-11-07T05:50:01.499Z,0
2016-11-07T05:51:01.491Z,0
2016-11-07T05:52:01.468Z,0
2016-11-07T05:53:01.505Z,0
2016-11-07T05:54:01.510Z,0
2016-11-07T05:55:01.477Z,0
2016-11-07T05:56:01.455Z,0
2016-11-07T05:57:01.531Z,0
2016-11-07T05:58:01.500Z,0
2016-11-07T05:59:01.476Z,0
2016-11-07T06:00:01.512Z,0
2016-11-07T06:01:01.486Z,0
2016-11-07T06:02:01.505Z,0
2016-11-07T06:03:01.507Z,0
2016-11-07T06:04:01.492Z,0
2016-11-07T06:05:01.505Z,0
2016-11-07T06:06:01.523Z,0
2016-11-07T06:07:01.558Z,0
2016-11-07T06:08:01.576Z,0
2016-11-07T06:09:01.719Z,4
2016-11-07T06:10:01.551Z,4
2016-11-07T06:11:01.525Z,4
2016-11-07T06:12:01.519Z,0
2016-11-07T06:13:01.524Z,4
2016-11-07T06:14:01.494Z,4
2016-11-07T06:15:01.492Z,4
2016-11-07T06:16:02.132Z,8
2016-11-07T06:17:01.507Z,8
2016-11-07T06:18:01.576Z,8
2016-11-07T06:19:01.511Z,12
2016-11-07T06:20:01.519Z,12
2016-11-07T06:21:01.529Z,16
2016-11-07T06:22:01.560Z,16
2016-11-07T06:23:01.557Z,20
2016-11-07T06:24:01.513Z,20
2016-11-07T06:25:01.526Z,24
2016-11-07T06:26:01.531Z,28
2016-11-07T06:27:01.538Z,28
2016-11-07T06:28:01.536Z,32
2016-11-07T06:29:01.540Z,40
2016-11-07T06:30:01.553Z,40
2016-11-07T06:31:01.522Z,44
2016-11-07T06:32:01.517Z,44
2016-11-07T06:33:01.582Z,48
2016-11-07T06:34:01.585Z,44
2016-11-07T06:35:01.559Z,48
2016-11-07T06:36:01.541Z,44
2016-11-07T06:37:01.511Z,48
2016-11-07T06:38:01.584Z,44
2016-11-07T06:39:01.601Z,48
2016-11-07T06:40:02.147Z,48
2016-11-07T06:41:01.569Z,48
2016-11-07T06:42:01.558Z,60
2016-11-07T06:43:01.582Z,72
2016-11-07T06:44:01.759Z,88
2016-11-07T06:45:01.527Z,104
2016-11-07T06:46:01.526Z,124
2016-11-07T06:47:01.514Z,136
2016-11-07T06:48:02.632Z,152
2016-11-07T06:49:02.046Z,176
2016-11-07T06:50:02.047Z,200
2016-11-07T06:51:01.545Z,220
2016-11-07T06:52:01.557Z,244
2016-11-07T06:53:01.540Z,264
2016-11-07T06:54:01.694Z,276
2016-11-07T06:55:01.633Z,292
2016-11-07T06:56:01.582Z,300
2016-11-07T06:57:01.553Z,312
2016-11-07T06:58:01.562Z,320
2016-11-07T06:59:01.529Z,328
2016-11-07T07:00:01.504Z,340
2016-11-07T07:01:01.585Z,352
2016-11-07T07:02:01.566Z,360
2016-11-07T07:03:02.084Z,364
2016-11-07T07:04:01.666Z,372
2016-11-07T07:05:01.671Z,380
2016-11-07T07:06:01.588Z,392
2016-11-07T07:07:01.620Z,412
2016-11-07T07:08:01.668Z,432
2016-11-07T07:09:02.580Z,456
2016-11-07T07:10:01.752Z,484
2016-11-07T07:11:01.640Z,516
2016-11-07T07:12:01.624Z,552
2016-11-07T07:13:01.631Z,580
2016-11-07T07:14:01.621Z,616
2016-11-07T07:15:01.659Z,644
2016-11-07T07:16:01.637Z,672
2016-11-07T07:17:01.641Z,700
2016-11-07T07:18:02.445Z,712
2016-11-07T07:19:01.585Z,720
2016-11-07T07:20:01.662Z,724
2016-11-07T07:21:01.752Z,728
2016-11-07T07:22:01.656Z,732
2016-11-07T07:23:01.652Z,736
2016-11-07T07:24:01.602Z,736
2016-11-07T07:25:01.732Z,736
2016-11-07T07:26:01.633Z,748
2016-11-07T07:27:01.567Z,756
2016-11-07T07:28:01.588Z,768
2016-11-07T07:29:01.607Z,780
2016-11-07T07:30:01.675Z,804
2016-11-07T07:31:01.604Z,836
2016-11-07T07:32:01.641Z,884
2016-11-07T07:33:01.648Z,940
2016-11-07T07:34:02.390Z,1008
2016-11-07T07:35:01.559Z,1080
2016-11-07T07:36:01.667Z,1168
2016-11-07T07:37:01.589Z,1260
2016-11-07T07:38:01.626Z,1340
2016-11-07T07:39:01.559Z,1400
2016-11-07T07:40:01.593Z,1436
2016-11-07T07:41:01.749Z,1448
2016-11-07T07:42:01.604Z,1440
2016-11-07T07:43:01.588Z,1432
2016-11-07T07:44:01.633Z,1440
2016-11-07T07:45:01.557Z,1480
2016-11-07T07:46:02.260Z,1564
2016-11-07T07:47:01.611Z,1680
2016-11-07T07:48:01.762Z,1812
2016-11-07T07:49:01.585Z,1956
2016-11-07T07:50:01.596Z,2088
2016-11-07T07:51:01.623Z,2196
2016-11-07T07:52:02.107Z,2256
2016-11-07T07:53:01.602Z,2284
2016-11-07T07:54:01.676Z,2288
2016-11-07T07:55:01.596Z,2292
2016-11-07T07:56:01.662Z,2320
2016-11-07T07:57:01.569Z,2376
2016-11-07T07:58:01.572Z,2436
2016-11-07T07:59:01.589Z,2492
2016-11-07T08:00:01.617Z,2580
2016-11-07T08:01:01.572Z,2648
2016-11-07T08:02:01.767Z,2632
2016-11-07T08:03:01.597Z,2680
2016-11-07T08:04:01.748Z,2768
2016-11-07T08:05:01.600Z,2912
2016-11-07T08:06:03.074Z,2908
2016-11-07T08:07:02.897Z,3044
2016-11-07T08:08:02.708Z,3124
2016-11-07T08:09:01.873Z,3148
2016-11-07T08:10:01.879Z,3156
2016-11-07T08:11:02.596Z,3160
2016-11-07T08:12:01.841Z,3124
2016-11-07T08:13:01.882Z,2916
2016-11-07T08:14:02.558Z,2608
2016-11-07T08:15:02.369Z,2408
2016-11-07T08:16:02.456Z,2316
2016-11-07T08:17:01.611Z,2172
2016-11-07T08:18:02.817Z,2192
2016-11-07T08:19:02.338Z,2092
2016-11-07T08:20:01.703Z,1856
2016-11-07T08:21:01.567Z,1824
2016-11-07T08:22:01.604Z,2004
2016-11-07T08:23:01.891Z,2220
2016-11-07T08:24:01.883Z,2184
2016-11-07T08:25:01.607Z,2272
2016-11-07T08:26:01.645Z,2524
2016-11-07T08:27:01.841Z,2780
2016-11-07T08:28:01.624Z,2952
2016-11-07T08:29:01.926Z,3088
2016-11-07T08:30:01.749Z,3016
2016-11-07T08:31:01.869Z,3148
2016-11-07T08:32:01.972Z,3408
2016-11-07T08:33:02.285Z,3496
2016-11-07T08:34:01.607Z,3456
2016-11-07T08:35:01.681Z,3372
2016-11-07T08:36:02.614Z,3452
2016-11-07T08:37:01.625Z,3484
2016-11-07T08:38:01.625Z,3428
2016-11-07T08:39:01.639Z,3352
2016-11-07T08:40:02.356Z,3296
2016-11-07T08:41:01.988Z,3284
2016-11-07T08:42:01.657Z,3284
2016-11-07T08:43:02.485Z,3320
2016-11-07T08:44:01.662Z,3292
2016-11-07T08:45:01.851Z,3204
2016-11-07T08:46:01.647Z,3116
2016-11-07T08:47:01.704Z,3128
2016-11-07T08:48:01.690Z,3016
2016-11-07T08:49:01.693Z,2704
2016-11-07T08:50:01.679Z,2492
2016-11-07T08:51:01.601Z,2536
2016-11-07T08:52:01.596Z,2628
2016-11-07T08:53:01.621Z,2648
2016-11-07T08:54:02.405Z,2408
2016-11-07T08:55:01.669Z,2204
2016-11-07T08:56:02.544Z,2124
2016-11-07T08:57:01.688Z,2200
2016-11-07T08:58:02.053Z,2144
2016-11-07T08:59:02.398Z,2064
2016-11-07T09:00:02.327Z,2100
2016-11-07T09:01:01.625Z,2240
2016-11-07T09:02:01.679Z,2272
2016-11-07T09:03:02.988Z,2196
2016-11-07T09:04:02.514Z,2092
2016-11-07T09:05:02.077Z,1980
2016-11-07T09:06:02.104Z,1992
2016-11-07T09:07:01.636Z,2040
2016-11-07T09:08:01.681Z,1992
2016-11-07T09:09:01.665Z,1900
2016-11-07T09:10:01.626Z,1860
2016-11-07T09:11:01.765Z,1916
2016-11-07T09:12:02.200Z,1972
2016-11-07T09:13:01.632Z,2180
2016-11-07T09:14:01.676Z,2480
2016-11-07T09:15:01.704Z,2644
2016-11-07T09:16:01.681Z,2768
2016-11-07T09:17:02.264Z,2888
2016-11-07T09:18:02.615Z,2888
2016-11-07T09:19:01.674Z,2768
2016-11-07T09:20:01.712Z,2688
2016-11-07T09:21:01.643Z,2640
2016-11-07T09:22:01.698Z,2672
2016-11-07T09:23:01.832Z,2760
2016-11-07T09:24:01.706Z,2828
2016-11-07T09:25:01.645Z,2968
2016-11-07T09:26:01.672Z,3148
2016-11-07T09:27:01.757Z,3340
2016-11-07T09:28:01.768Z,3532
2016-11-07T09:29:01.701Z,3636
2016-11-07T09:30:01.701Z,3688
2016-11-07T09:31:01.681Z,3708
2016-11-07T09:32:02.039Z,3732
2016-11-07T09:33:01.636Z,3724
2016-11-07T09:34:01.898Z,3716
2016-11-07T09:35:02.108Z,3704
2016-11-07T09:36:01.634Z,3652
2016-11-07T09:37:01.770Z,3580
2016-11-07T09:38:01.860Z,3548
2016-11-07T09:39:01.889Z,3496
2016-11-07T09:40:01.745Z,3488
2016-11-07T09:41:02.421Z,3568
2016-11-07T09:42:01.695Z,3660
2016-11-07T09:43:02.065Z,3744
2016-11-07T09:44:02.133Z,3700
2016-11-07T09:45:02.050Z,3588
2016-11-07T09:46:01.973Z,3452
2016-11-07T09:47:02.234Z,3256
2016-11-07T09:48:02.344Z,3068
2016-11-07T09:49:01.975Z,2904
2016-11-07T09:50:02.082Z,2820
2016-11-07T09:51:02.113Z,2768
2016-11-07T09:52:01.793Z,2732
2016-11-07T09:53:03.413Z,2692
2016-11-07T09:54:02.129Z,2652
2016-11-07T09:55:01.900Z,2764
2016-11-07T09:56:02.103Z,3316
2016-11-07T09:57:01.896Z,3656
2016-11-07T09:58:02.700Z,3636
2016-11-07T09:59:01.912Z,3584
2016-11-07T10:00:02.391Z,3792
2016-11-07T10:01:01.866Z,4108
2016-11-07T10:02:02.537Z,4388
2016-11-07T10:03:01.870Z,4432
2016-11-07T10:04:01.880Z,4316
2016-11-07T10:05:02.753Z,4136
2016-11-07T10:06:01.892Z,4000
2016-11-07T10:07:02.286Z,3976
2016-11-07T10:08:02.869Z,4072
2016-11-07T10:09:01.852Z,4036
2016-11-07T10:10:01.828Z,3864
2016-11-07T10:11:02.442Z,3696
2016-11-07T10:12:01.886Z,3576
2016-11-07T10:13:01.822Z,3492
2016-11-07T10:14:02.337Z,3376
2016-11-07T10:15:01.809Z,3188
2016-11-07T10:16:01.876Z,3016
2016-11-07T10:17:01.847Z,3040
2016-11-07T10:18:02.449Z,2884
2016-11-07T10:19:01.817Z,2744
2016-11-07T10:20:02.361Z,2692
2016-11-07T10:21:01.912Z,2516
2016-11-07T10:22:01.957Z,2336
2016-11-07T10:23:02.337Z,2280
2016-11-07T10:24:01.905Z,2288
2016-11-07T10:25:01.892Z,2360
2016-11-07T10:26:01.893Z,2424
2016-11-07T10:27:02.135Z,2488
2016-11-07T10:28:01.887Z,2460
2016-11-07T10:29:02.180Z,2444
2016-11-07T10:30:01.998Z,2424
2016-11-07T10:31:02.359Z,2428
2016-11-07T10:32:02.798Z,2460
2016-11-07T10:33:01.914Z,2504
2016-11-07T10:34:02.511Z,2508
2016-11-07T10:35:02.466Z,2512
2016-11-07T10:36:01.864Z,2488
2016-11-07T10:37:01.930Z,2452
2016-11-07T10:38:01.774Z,2404
2016-11-07T10:39:01.797Z,2336
2016-11-07T10:40:01.695Z,2220
2016-11-07T10:41:01.810Z,2096
2016-11-07T10:42:01.922Z,1904
2016-11-07T10:43:02.252Z,1688
2016-11-07T10:44:01.780Z,1452
2016-11-07T10:45:02.235Z,1344
2016-11-07T10:46:01.806Z,1288
2016-11-07T10:47:03.372Z,1412
2016-11-07T10:48:03.144Z,1332
2016-11-07T10:49:02.318Z,1200
2016-11-07T10:50:01.768Z,1224
2016-11-07T10:51:01.866Z,1384
2016-11-07T10:52:03.190Z,1564
2016-11-07T10:53:01.763Z,1636
2016-11-07T10:54:02.562Z,1824
2016-11-07T10:55:01.751Z,2304
2016-11-07T10:56:02.239Z,2772
2016-11-07T10:57:01.750Z,2656
2016-11-07T10:58:02.897Z,2428
2016-11-07T10:59:01.774Z,2252
2016-11-07T11:00:01.860Z,1996
2016-11-07T11:01:01.758Z,2176
2016-11-07T11:02:01.777Z,2584
2016-11-07T11:03:01.851Z,2800
2016-11-07T11:04:01.902Z,2992
2016-11-07T11:05:02.333Z,3148
2016-11-07T11:06:01.934Z,3312
2016-11-07T11:07:01.851Z,3384
2016-11-07T11:08:01.820Z,3376
2016-11-07T11:09:02.727Z,3416
2016-11-07T11:10:02.000Z,3496
2016-11-07T11:11:01.758Z,3600
2016-11-07T11:12:01.705Z,3736
2016-11-07T11:13:02.126Z,3900
2016-11-07T11:14:02.026Z,3972
2016-11-07T11:15:01.975Z,3868
2016-11-07T11:16:01.794Z,3696
2016-11-07T11:17:01.957Z,3572
2016-11-07T11:18:01.980Z,3496
2016-11-07T11:19:02.090Z,3408
2016-11-07T11:20:01.947Z,3440
2016-11-07T11:21:02.470Z,3568
2016-11-07T11:22:01.829Z,3648
2016-11-07T11:23:01.781Z,3740
2016-11-07T11:24:01.804Z,3828
2016-11-07T11:25:01.800Z,3920
2016-11-07T11:26:01.773Z,4004
2016-11-07T11:27:01.780Z,4012
2016-11-07T11:28:01.934Z,3948
2016-11-07T11:29:01.816Z,3852
2016-11-07T11:30:01.790Z,3808
2016-11-07T11:31:01.787Z,3736
2016-11-07T11:32:01.794Z,3504
2016-11-07T11:33:01.778Z,3520
2016-11-07T11:34:01.797Z,3544
2016-11-07T11:35:01.803Z,3644
2016-11-07T11:36:01.780Z,3848
2016-11-07T11:37:01.758Z,4080
2016-11-07T11:38:01.791Z,4100
2016-11-07T11:39:02.546Z,3876
2016-11-07T11:40:01.735Z,3592
2016-11-07T11:41:01.761Z,3420
2016-11-07T11:42:01.735Z,3264
2016-11-07T11:43:01.826Z,3128
2016-11-07T11:44:01.834Z,3348
2016-11-07T11:45:01.809Z,3540
2016-11-07T11:46:01.828Z,3452
2016-11-07T11:47:01.819Z,3740
2016-11-07T11:48:01.879Z,3816
2016-11-07T11:49:01.798Z,3920
2016-11-07T11:50:01.811Z,4112
2016-11-07T11:51:03.048Z,4108
2016-11-07T11:52:02.839Z,4088
2016-11-07T11:53:03.023Z,4160
2016-11-07T11:54:02.227Z,4196
2016-11-07T11:55:03.992Z,4196
2016-11-07T11:56:01.796Z,4224
2016-11-07T11:57:01.796Z,4220
2016-11-07T11:58:01.771Z,4232
2016-11-07T11:59:01.976Z,4252
2016-11-07T12:00:02.102Z,4228
2016-11-07T12:01:01.917Z,4184
2016-11-07T12:02:01.906Z,4148
2016-11-07T12:03:01.865Z,4080
2016-11-07T12:04:02.266Z,4040
2016-11-07T12:05:02.370Z,4068
2016-11-07T12:06:01.991Z,4148
2016-11-07T12:07:01.838Z,4252
2016-11-07T12:08:01.912Z,4332
2016-11-07T12:09:01.863Z,4364
2016-11-07T12:10:01.876Z,4388
2016-11-07T12:11:01.866Z,4336
2016-11-07T12:12:02.161Z,4244
2016-11-07T12:13:02.663Z,4128
2016-11-07T12:14:01.778Z,4220
2016-11-07T12:15:02.232Z,4236
2016-11-07T12:16:01.844Z,4232
2016-11-07T12:17:01.858Z,4444
2016-11-07T12:18:01.945Z,4444
2016-11-07T12:19:02.465Z,4616
2016-11-07T12:20:01.859Z,4716
2016-11-07T12:21:01.930Z,4640
2016-11-07T12:22:01.831Z,4680
2016-11-07T12:23:01.852Z,4848
2016-11-07T12:24:01.895Z,4908
2016-11-07T12:25:01.811Z,4952
2016-11-07T12:26:01.880Z,4784
2016-11-07T12:27:01.865Z,4452
2016-11-07T12:28:01.840Z,4280
2016-11-07T12:29:01.883Z,4336
2016-11-07T12:30:02.838Z,3796
2016-11-07T12:31:01.959Z,4164
2016-11-07T12:32:01.821Z,4492
2016-11-07T12:33:01.788Z,3628
2016-11-07T12:34:01.860Z,2980
2016-11-07T12:35:01.868Z,2412
2016-11-07T12:36:01.831Z,2432
2016-11-07T12:37:01.875Z,2020
2016-11-07T12:38:01.788Z,2136
2016-11-07T12:39:01.815Z,2348
2016-11-07T12:40:01.773Z,2568
2016-11-07T12:41:01.769Z,2900
2016-11-07T12:42:01.850Z,3192
2016-11-07T12:43:01.813Z,3104
2016-11-07T12:44:01.846Z,3128
2016-11-07T12:45:01.834Z,2820
2016-11-07T12:46:01.803Z,2432
2016-11-07T12:47:01.872Z,2020
2016-11-07T12:48:01.827Z,1956
2016-11-07T12:49:01.845Z,2156
2016-11-07T12:50:01.787Z,2260
2016-11-07T12:51:01.798Z,2296
2016-11-07T12:52:01.817Z,1804
2016-11-07T12:53:01.808Z,1396
2016-11-07T12:54:01.840Z,1328
2016-11-07T12:55:01.824Z,1692
2016-11-07T12:56:01.902Z,2140
2016-11-07T12:57:01.809Z,2440
2016-11-07T12:58:01.876Z,2408
2016-11-07T12:59:01.817Z,2796
2016-11-07T13:00:01.864Z,2660
2016-11-07T13:01:01.825Z,2632
2016-11-07T13:02:01.863Z,2744
2016-11-07T13:03:02.015Z,2840
2016-11-07T13:04:01.914Z,2892
2016-11-07T13:05:01.871Z,2944
2016-11-07T13:06:01.840Z,2924
2016-11-07T13:07:01.828Z,2868
2016-11-07T13:08:01.842Z,2752
2016-11-07T13:09:01.847Z,2672
2016-11-07T13:10:01.840Z,2736
2016-11-07T13:11:01.821Z,2648
2016-11-07T13:12:01.809Z,2580
2016-11-07T13:13:01.853Z,2552
2016-11-07T13:14:01.832Z,2532
2016-11-07T13:15:01.799Z,2448
2016-11-07T13:16:01.851Z,2384
2016-11-07T13:17:01.859Z,2328
2016-11-07T13:18:01.906Z,2536
2016-11-07T13:19:02.544Z,2484
2016-11-07T13:20:02.733Z,2496
2016-11-07T13:21:02.841Z,2644
2016-11-07T13:22:02.762Z,2796
2016-11-07T13:23:02.087Z,2860
2016-11-07T13:24:02.900Z,2956
2016-11-07T13:25:01.812Z,3048
2016-11-07T13:26:03.015Z,3180
2016-11-07T13:27:01.838Z,3256
2016-11-07T13:28:01.841Z,3592
2016-11-07T13:29:01.863Z,3596
2016-11-07T13:30:01.871Z,3652
2016-11-07T13:31:02.090Z,3604
2016-11-07T13:32:01.906Z,3500
2016-11-07T13:33:03.749Z,3184
2016-11-07T13:34:02.239Z,2732
2016-11-07T13:35:02.518Z,2040
2016-11-07T13:36:01.842Z,1572
2016-11-07T13:37:01.889Z,1624
2016-11-07T13:38:02.811Z,1536
2016-11-07T13:39:01.912Z,1896
2016-11-07T13:40:01.854Z,2300
2016-11-07T13:41:01.886Z,1920
2016-11-07T13:42:01.922Z,1872
2016-11-07T13:43:01.929Z,2128
2016-11-07T13:44:01.924Z,2052
2016-11-07T13:45:01.880Z,1972
2016-11-07T13:46:01.863Z,2036
2016-11-07T13:47:01.884Z,2248
2016-11-07T13:48:01.896Z,2076
2016-11-07T13:49:01.862Z,2164
2016-11-07T13:50:01.926Z,2168
2016-11-07T13:51:01.889Z,2308
2016-11-07T13:52:02.658Z,2316
2016-11-07T13:53:01.880Z,2120
2016-11-07T13:54:01.892Z,2200
2016-11-07T13:55:03.086Z,2224
2016-11-07T13:56:03.073Z,2428
2016-11-07T13:57:02.502Z,2552
2016-11-07T13:58:02.587Z,2712
2016-11-07T13:59:01.973Z,2560